Time;durP1;ratioP1;P1;durP2;ratioP2;P2;SDS_P1;SDS_P2;PMS_P1;PMS_P2;Temp;Humidity;BMP_temperature;BMP_pressure;BME280_temperature;BME280_humidity;BME280_pressure;Samples;Min_cycle;Max_cycle;Signal;HPM_P1;HPM_P2
2024/04/10 00:01:46;;;;;;;3.55;1.55;;;;;;;;;;4934156;29;20312;-94
2024/04/10 00:04:55;;;;;;;6.07;1.70;;;;;;;;;;4934216;29;20211;-89
2024/04/10 00:08:00;;;;;;;4.20;1.70;;;;;;;;;;4935829;29;20200;-93
2024/04/10 00:11:06;;;;;;;3.97;1.52;;;;;;;;;;4993227;23;20318;-92
2024/04/10 00:14:11;;;;;;;4.35;1.85;;;;;;;;;;4934914;29;20211;-92
2024/04/10 00:17:16;;;;;;;3.33;1.98;;;;;;;;;;4934250;29;20565;-93
2024/04/10 00:20:21;;;;;;;4.13;1.40;;;;;;;;;;4931141;29;20191;-93
2024/04/10 00:23:27;;;;;;;6.60;1.35;;;;;;;;;;4949154;28;20226;-93
2024/04/10 00:26:35;;;;;;;8.52;1.50;;;;;;;;;;4951759;28;20202;-94
2024/04/10 00:29:40;;;;;;;4.38;1.27;;;;;;;;;;4951373;28;20259;-93
2024/04/10 00:32:47;;;;;;;6.10;1.00;;;;;;;;;;4939893;29;20206;-91
2024/04/10 00:35:57;;;;;;;1.73;0.90;;;;;;;;;;4951914;28;20211;-93
2024/04/10 00:39:02;;;;;;;6.35;1.08;;;;;;;;;;4953557;28;20199;-92
2024/04/10 00:42:08;;;;;;;3.58;1.10;;;;;;;;;;4953539;28;20237;-91
2024/04/10 00:45:13;;;;;;;2.40;0.95;;;;;;;;;;4939728;28;20203;-93
2024/04/10 00:48:18;;;;;;;3.90;1.00;;;;;;;;;;4951995;28;20667;-92
2024/04/10 00:51:24;;;;;;;3.05;1.40;;;;;;;;;;4950720;28;20264;-91
2024/04/10 00:54:29;;;;;;;1.92;1.00;;;;;;;;;;4950449;28;20226;-91
2024/04/10 00:57:33;;;;;;;4.70;1.33;;;;;;;;;;4937508;28;20199;-91
2024/04/10 01:00:39;;;;;;;4.20;1.10;;;;;;;;;;4948139;28;20266;-91
2024/04/10 01:03:46;;;;;;;4.10;1.27;;;;;;;;;;4932117;29;20207;-91
2024/04/10 01:06:52;;;;;;;4.20;1.42;;;;;;;;;;4933084;29;20219;-92
2024/04/10 01:09:58;;;;;;;5.97;1.52;;;;;;;;;;4932357;29;20223;-91
2024/04/10 01:13:05;;;;;;;4.72;1.50;;;;;;;;;;4950894;28;20203;-93
2024/04/10 01:16:11;;;;;;;4.85;1.70;;;;;;;;;;4934643;29;20232;-91
2024/04/10 01:19:15;;;;;;;4.57;1.90;;;;;;;;;;4950666;28;20207;-92
2024/04/10 01:22:21;;;;;;;3.78;1.48;;;;;;;;;;4949508;28;20199;-93
2024/04/10 01:25:28;;;;;;;3.38;1.52;;;;;;;;;;4937344;28;20212;-93
2024/04/10 01:28:33;;;;;;;3.70;1.77;;;;;;;;;;4938912;28;20193;-92
2024/04/10 01:31:38;;;;;;;7.07;1.80;;;;;;;;;;4946502;28;20206;-92
2024/04/10 01:34:43;;;;;;;4.47;2.67;;;;;;;;;;4947704;28;20228;-91
2024/04/10 01:37:48;;;;;;;3.78;1.73;;;;;;;;;;4948195;28;20218;-90
2024/04/10 01:40:54;;;;;;;3.17;1.45;;;;;;;;;;4939524;28;20211;-92
2024/04/10 01:44:00;;;;;;;3.70;1.60;;;;;;;;;;4931873;29;20583;-91
2024/04/10 01:47:04;;;;;;;3.00;1.60;;;;;;;;;;4928165;29;20209;-92
2024/04/10 01:50:09;;;;;;;3.72;1.52;;;;;;;;;;4932946;28;20207;-92
2024/04/10 01:53:13;;;;;;;1.42;1.33;;;;;;;;;;4929109;29;20215;-93
2024/04/10 01:56:19;;;;;;;3.97;1.48;;;;;;;;;;4933832;29;20224;-92
2024/04/10 01:59:23;;;;;;;2.83;1.50;;;;;;;;;;4947132;28;20187;-90
2024/04/10 02:02:28;;;;;;;3.60;1.60;;;;;;;;;;4948271;28;20198;-92
2024/04/10 02:05:32;;;;;;;5.65;1.40;;;;;;;;;;4948361;28;20202;-91
2024/04/10 02:08:38;;;;;;;5.85;1.50;;;;;;;;;;4941112;29;20187;-92
2024/04/10 02:11:45;;;;;;;3.42;1.50;;;;;;;;;;4946016;28;20281;-90
2024/04/10 02:14:49;;;;;;;4.55;1.55;;;;;;;;;;4948908;28;20249;-93
2024/04/10 02:17:55;;;;;;;5.85;2.03;;;;;;;;;;4947612;28;20214;-91
2024/04/10 02:20:59;;;;;;;4.90;1.85;;;;;;;;;;4936037;28;20187;-90
2024/04/10 02:24:06;;;;;;;5.65;1.80;;;;;;;;;;4948648;28;20226;-91
2024/04/10 02:27:12;;;;;;;3.53;1.70;;;;;;;;;;4948208;28;20214;-91
2024/04/10 02:30:17;;;;;;;3.83;1.70;;;;;;;;;;4948903;29;20233;-91
2024/04/10 02:33:21;;;;;;;2.45;1.70;;;;;;;;;;4938783;29;20682;-91
2024/04/10 02:36:26;;;;;;;3.28;1.65;;;;;;;;;;4941741;28;20203;-91
2024/04/10 02:39:31;;;;;;;3.92;1.67;;;;;;;;;;4946644;29;20235;-92
2024/04/10 02:42:40;;;;;;;4.47;1.60;;;;;;;;;;4947576;28;20226;-91
2024/04/10 02:45:53;;;;;;;5.13;1.52;;;;;;;;;;4950395;28;20238;-92
2024/04/10 02:48:58;;;;;;;6.25;1.60;;;;;;;;;;4944163;29;20279;-89
2024/04/10 02:52:04;;;;;;;5.82;1.73;;;;;;;;;;4946104;28;20319;-93
2024/04/10 02:55:08;;;;;;;4.70;1.95;;;;;;;;;;4932119;29;20332;-91
2024/04/10 02:58:15;;;;;;;4.55;1.60;;;;;;;;;;4945090;28;20199;-90
2024/04/10 03:01:19;;;;;;;7.47;1.67;;;;;;;;;;4953454;29;20846;-91
2024/04/10 03:04:25;;;;;;;2.70;1.75;;;;;;;;;;4941955;29;20206;-92
2024/04/10 03:07:29;;;;;;;6.15;1.80;;;;;;;;;;4938501;29;20222;-91
2024/04/10 03:10:36;;;;;;;2.95;1.40;;;;;;;;;;4931744;29;20196;-92
2024/04/10 03:13:41;;;;;;;4.22;1.67;;;;;;;;;;4939288;29;20207;-91
2024/04/10 03:16:47;;;;;;;7.35;1.90;;;;;;;;;;4951928;28;20215;-92
2024/04/10 03:19:52;;;;;;;7.43;1.83;;;;;;;;;;4963966;28;20187;-92
2024/04/10 03:22:59;;;;;;;4.38;1.48;;;;;;;;;;4943233;28;20187;-92
2024/04/10 03:26:04;;;;;;;4.28;1.48;;;;;;;;;;4944035;28;20226;-91
2024/04/10 03:29:10;;;;;;;3.88;1.67;;;;;;;;;;4950710;28;20203;-92
2024/04/10 03:32:16;;;;;;;2.45;1.40;;;;;;;;;;4949975;28;20203;-92
2024/04/10 03:35:20;;;;;;;3.40;1.40;;;;;;;;;;4946050;29;20218;-91
2024/04/10 03:38:26;;;;;;;4.13;1.65;;;;;;;;;;4946584;28;20211;-93
2024/04/10 03:41:33;;;;;;;3.85;1.55;;;;;;;;;;4936996;28;20286;-91
2024/04/10 03:44:41;;;;;;;2.83;1.70;;;;;;;;;;4930856;29;20223;-93
2024/04/10 03:47:46;;;;;;;2.85;1.70;;;;;;;;;;4931737;29;20184;-93
2024/04/10 03:50:58;;;;;;;4.38;1.67;;;;;;;;;;4947861;28;20199;-95
2024/04/10 03:54:04;;;;;;;3.85;1.80;;;;;;;;;;4951764;28;20243;-92
2024/04/10 03:57:10;;;;;;;5.90;1.92;;;;;;;;;;4950509;28;20203;-92
2024/04/10 04:00:19;;;;;;;4.60;1.67;;;;;;;;;;4951573;28;20659;-92
2024/04/10 04:03:23;;;;;;;2.38;1.52;;;;;;;;;;4936009;29;20217;-91
2024/04/10 04:06:28;;;;;;;6.57;1.80;;;;;;;;;;4943852;28;20206;-91
2024/04/10 04:09:33;;;;;;;3.15;1.65;;;;;;;;;;4952955;28;20191;-90
2024/04/10 04:12:38;;;;;;;2.95;1.35;;;;;;;;;;4953393;28;20276;-91
2024/04/10 04:15:44;;;;;;;4.10;1.77;;;;;;;;;;4932423;29;20273;-94
2024/04/10 04:18:49;;;;;;;4.15;1.65;;;;;;;;;;4932835;29;20303;-93
2024/04/10 04:21:53;;;;;;;6.72;1.73;;;;;;;;;;4931118;29;20196;-93
2024/04/10 04:24:59;;;;;;;3.33;1.50;;;;;;;;;;4932622;29;20587;-92
2024/04/10 04:28:04;;;;;;;2.10;1.38;;;;;;;;;;4940564;29;20203;-93
2024/04/10 04:31:11;;;;;;;6.60;1.40;;;;;;;;;;4941123;28;20194;-91
2024/04/10 04:34:16;;;;;;;3.92;1.45;;;;;;;;;;4951156;28;20203;-92
2024/04/10 04:37:20;;;;;;;4.57;1.60;;;;;;;;;;4941483;28;20219;-91
2024/04/10 04:40:31;;;;;;;5.22;1.45;;;;;;;;;;4930412;29;20320;-91
2024/04/10 04:43:35;;;;;;;2.60;1.20;;;;;;;;;;4930308;29;20196;-90
2024/04/10 04:46:42;;;;;;;4.30;1.35;;;;;;;;;;4930339;29;20192;-92
2024/04/10 04:49:46;;;;;;;3.83;1.40;;;;;;;;;;4929640;29;20192;-91
2024/04/10 04:52:52;;;;;;;5.15;1.80;;;;;;;;;;4943974;28;20795;-91
2024/04/10 04:55:57;;;;;;;2.75;1.40;;;;;;;;;;4933552;28;20332;-90
2024/04/10 04:59:02;;;;;;;3.80;1.40;;;;;;;;;;4945541;28;20197;-92
2024/04/10 05:02:22;;;;;;;2.10;1.33;;;;;;;;;;4942125;29;20233;-91
2024/04/10 05:05:29;;;;;;;3.50;1.73;;;;;;;;;;4942270;29;20230;-93
2024/04/10 05:08:34;;;;;;;5.15;1.42;;;;;;;;;;4943008;28;20276;-93
2024/04/10 05:11:40;;;;;;;3.35;1.30;;;;;;;;;;4946360;28;20262;-92
2024/04/10 05:14:48;;;;;;;2.90;1.30;;;;;;;;;;4950497;28;20227;-91
2024/04/10 05:17:54;;;;;;;4.47;1.30;;;;;;;;;;4952576;28;20195;-94
2024/04/10 05:20:59;;;;;;;3.63;1.42;;;;;;;;;;4952396;28;20554;-94
2024/04/10 05:24:07;;;;;;;4.22;1.80;;;;;;;;;;4950398;28;20293;-92
2024/04/10 05:27:21;;;;;;;3.28;1.70;;;;;;;;;;4932179;28;20256;-89
2024/04/10 05:30:27;;;;;;;4.30;1.55;;;;;;;;;;4932948;28;20211;-90
2024/04/10 05:33:32;;;;;;;3.00;1.50;;;;;;;;;;4937431;29;20191;-92
2024/04/10 05:36:39;;;;;;;5.30;1.92;;;;;;;;;;4952158;28;20785;-93
2024/04/10 05:39:45;;;;;;;3.83;1.77;;;;;;;;;;4951467;28;20176;-92
2024/04/10 05:43:01;;;;;;;6.18;2.03;;;;;;;;;;4950251;29;20187;-94
2024/04/10 05:46:05;;;;;;;6.22;1.77;;;;;;;;;;4949679;28;20191;-90
2024/04/10 05:49:11;;;;;;;6.32;1.95;;;;;;;;;;4945848;29;20216;-92
2024/04/10 05:52:19;;;;;;;5.90;1.73;;;;;;;;;;4939462;28;20199;-93
2024/04/10 05:58:45;;;;;;;3.50;2.10;;;;;;;;;;4929695;29;20272;-93
2024/04/10 06:01:50;;;;;;;2.88;1.60;;;;;;;;;;4930610;29;20179;-90
2024/04/10 06:04:55;;;;;;;3.53;1.83;;;;;;;;;;4929068;29;20223;-94
2024/04/10 06:08:01;;;;;;;3.20;1.60;;;;;;;;;;4930251;29;20190;-93
2024/04/10 06:11:06;;;;;;;3.33;1.60;;;;;;;;;;4928816;29;20702;-92
2024/04/10 06:14:11;;;;;;;3.60;1.90;;;;;;;;;;4929078;29;20236;-92
2024/04/10 06:17:16;;;;;;;2.60;1.80;;;;;;;;;;4929359;29;20196;-92
2024/04/10 06:20:21;;;;;;;3.42;1.73;;;;;;;;;;4930070;29;20188;-92
2024/04/10 06:23:27;;;;;;;5.45;1.77;;;;;;;;;;4932035;29;20184;-93
2024/04/10 06:26:32;;;;;;;3.28;1.88;;;;;;;;;;4930591;29;20199;-91
2024/04/10 06:29:39;;;;;;;3.78;1.95;;;;;;;;;;4932145;29;20272;-94
2024/04/10 06:32:47;;;;;;;6.80;2.17;;;;;;;;;;4931265;29;20192;-90
2024/04/10 06:39:17;;;;;;;4.65;2.20;;;;;;;;;;4929466;29;20207;-92
2024/04/10 06:42:23;;;;;;;4.13;1.90;;;;;;;;;;4929770;29;20207;-93
2024/04/10 06:45:27;;;;;;;5.13;1.73;;;;;;;;;;4928621;29;20230;-91
2024/04/10 06:48:33;;;;;;;4.80;2.05;;;;;;;;;;4929001;29;20201;-92
2024/04/10 06:51:40;;;;;;;7.18;2.13;;;;;;;;;;4929559;29;20199;-92
2024/04/10 06:54:46;;;;;;;2.55;1.95;;;;;;;;;;4929635;29;20309;-90
2024/04/10 06:57:52;;;;;;;3.97;1.80;;;;;;;;;;4928421;29;20322;-92
2024/04/10 07:01:02;;;;;;;4.53;2.10;;;;;;;;;;4928667;29;20266;-93
2024/04/10 07:04:09;;;;;;;13.15;2.72;;;;;;;;;;4930639;29;20208;-92
2024/04/10 07:07:15;;;;;;;4.18;1.83;;;;;;;;;;4928944;29;20675;-93
2024/04/10 07:10:22;;;;;;;5.28;2.00;;;;;;;;;;4926826;29;20230;-93
2024/04/10 07:13:26;;;;;;;5.78;2.00;;;;;;;;;;4929263;29;20188;-91
2024/04/10 07:16:32;;;;;;;4.53;2.20;;;;;;;;;;4928107;29;20272;-94
2024/04/10 07:19:37;;;;;;;10.57;2.35;;;;;;;;;;4926773;29;20184;-90
2024/04/10 07:22:41;;;;;;;5.25;2.45;;;;;;;;;;4927752;29;20232;-94
2024/04/10 07:25:48;;;;;;;6.28;2.20;;;;;;;;;;4929094;29;20315;-92
2024/04/10 07:28:54;;;;;;;4.47;2.58;;;;;;;;;;4929633;29;20582;-92
2024/04/10 07:32:01;;;;;;;9.30;3.30;;;;;;;;;;4933602;29;20200;-93
2024/04/10 07:35:06;;;;;;;3.35;2.13;;;;;;;;;;4946090;29;20191;-92
2024/04/10 07:38:13;;;;;;;5.35;2.58;;;;;;;;;;4934481;29;20245;-93
2024/04/10 07:41:19;;;;;;;5.35;2.65;;;;;;;;;;4935512;29;20204;-93
2024/04/10 07:44:25;;;;;;;7.20;3.10;;;;;;;;;;4933736;29;20266;-92
2024/04/10 07:47:29;;;;;;;10.63;3.08;;;;;;;;;;4935051;29;20196;-92
2024/04/10 07:50:34;;;;;;;6.03;2.90;;;;;;;;;;4932309;29;20236;-92
2024/04/10 07:53:41;;;;;;;6.70;3.03;;;;;;;;;;4932445;29;20192;-93
2024/04/10 07:56:49;;;;;;;6.85;2.90;;;;;;;;;;4934388;29;20204;-94
2024/04/10 07:59:53;;;;;;;6.25;3.10;;;;;;;;;;4933142;29;20196;-93
2024/04/10 08:02:59;;;;;;;7.30;3.00;;;;;;;;;;4934031;29;20192;-93
2024/04/10 08:06:05;;;;;;;9.02;3.50;;;;;;;;;;4932731;29;20223;-94
2024/04/10 08:09:10;;;;;;;7.28;4.10;;;;;;;;;;4932346;29;20188;-94
2024/04/10 08:12:22;;;;;;;7.32;3.08;;;;;;;;;;4934319;29;20216;-93
2024/04/10 08:15:28;;;;;;;6.07;3.05;;;;;;;;;;4933728;29;20204;-93
2024/04/10 08:18:34;;;;;;;7.35;3.22;;;;;;;;;;4932582;29;20277;-93
2024/04/10 08:21:40;;;;;;;5.30;3.45;;;;;;;;;;4932555;29;20184;-90
2024/04/10 08:24:44;;;;;;;5.78;3.42;;;;;;;;;;4932092;29;20349;-91
2024/04/10 08:27:50;;;;;;;7.10;3.35;;;;;;;;;;4931871;29;20191;-92
2024/04/10 08:30:55;;;;;;;6.30;3.25;;;;;;;;;;4932062;29;20205;-93
2024/04/10 08:37:20;;;;;;;6.90;3.58;;;;;;;;;;4933365;29;20225;-91
2024/04/10 08:40:25;;;;;;;6.38;3.40;;;;;;;;;;4933442;29;20195;-92
2024/04/10 08:43:39;;;;;;;7.95;3.95;;;;;;;;;;4932042;29;20213;-94
2024/04/10 08:46:45;;;;;;;5.72;3.33;;;;;;;;;;4932292;29;20208;-92
2024/04/10 08:49:52;;;;;;;6.32;3.47;;;;;;;;;;4930332;29;20209;-94
2024/04/10 08:56:18;;;;;;;8.80;4.10;;;;;;;;;;4929953;29;20203;-92
2024/04/10 08:59:27;;;;;;;8.02;3.45;;;;;;;;;;4929864;29;20188;-94
2024/04/10 09:02:33;;;;;;;10.85;4.13;;;;;;;;;;4929085;29;20330;-91
2024/04/10 09:05:37;;;;;;;7.75;3.63;;;;;;;;;;4929956;29;20271;-93
2024/04/10 09:08:42;;;;;;;8.75;4.00;;;;;;;;;;4925178;29;20243;-93
2024/04/10 09:11:51;;;;;;;7.15;3.90;;;;;;;;;;4928287;29;20215;-95
2024/04/10 09:15:09;;;;;;;8.18;4.68;;;;;;;;;;4926036;29;20200;-91
2024/04/10 09:18:13;;;;;;;7.72;4.20;;;;;;;;;;4927833;29;20199;-94
2024/04/10 09:21:19;;;;;;;13.25;4.88;;;;;;;;;;4927134;29;20299;-93
2024/04/10 09:24:24;;;;;;;8.93;4.13;;;;;;;;;;4927123;29;20188;-93
2024/04/10 09:27:32;;;;;;;10.93;4.82;;;;;;;;;;4928768;29;20184;-93
2024/04/10 09:30:38;;;;;;;7.55;4.65;;;;;;;;;;4928595;29;20344;-93
2024/04/10 09:33:44;;;;;;;12.50;5.47;;;;;;;;;;4929799;29;20191;-94
2024/04/10 09:36:48;;;;;;;9.00;5.22;;;;;;;;;;4929227;29;20282;-92
2024/04/10 09:39:53;;;;;;;12.40;4.95;;;;;;;;;;4930458;29;20199;-93
2024/04/10 09:43:00;;;;;;;10.23;5.80;;;;;;;;;;4929018;29;20266;-92
2024/04/10 09:46:07;;;;;;;13.25;5.72;;;;;;;;;;4927063;29;20266;-92
2024/04/10 09:49:12;;;;;;;10.15;5.32;;;;;;;;;;4928858;29;20199;-93
2024/04/10 09:52:18;;;;;;;11.40;5.97;;;;;;;;;;4929145;29;20192;-93
2024/04/10 09:55:24;;;;;;;11.45;5.22;;;;;;;;;;4927488;29;20188;-92
2024/04/10 09:58:30;;;;;;;8.85;5.53;;;;;;;;;;4931590;29;20213;-92
2024/04/10 10:01:36;;;;;;;9.80;5.60;;;;;;;;;;4929696;29;20691;-92
2024/04/10 10:04:42;;;;;;;9.90;6.13;;;;;;;;;;4931724;29;20199;-94
2024/04/10 10:07:47;;;;;;;11.48;6.00;;;;;;;;;;4927880;29;20188;-92
2024/04/10 10:10:52;;;;;;;10.50;5.72;;;;;;;;;;4928199;29;20236;-93
2024/04/10 10:13:58;;;;;;;8.63;5.38;;;;;;;;;;4928863;29;20188;-92
2024/04/10 10:17:07;;;;;;;9.25;5.70;;;;;;;;;;4928954;29;20280;-92
2024/04/10 10:20:20;;;;;;;11.82;4.93;;;;;;;;;;4928604;29;20192;-93
2024/04/10 10:23:26;;;;;;;8.73;5.05;;;;;;;;;;4929199;29;20180;-92
2024/04/10 10:26:31;;;;;;;10.82;5.80;;;;;;;;;;4927692;29;20726;-92
2024/04/10 10:29:36;;;;;;;10.02;5.20;;;;;;;;;;4926621;29;20224;-92
2024/04/10 10:32:43;;;;;;;11.00;5.00;;;;;;;;;;4928929;29;20183;-94
2024/04/10 10:35:47;;;;;;;8.07;5.07;;;;;;;;;;4928629;29;20251;-91
2024/04/10 10:39:00;;;;;;;9.88;5.32;;;;;;;;;;4928766;29;20223;-91
2024/04/10 10:42:07;;;;;;;9.43;5.00;;;;;;;;;;4928499;29;20195;-93
2024/04/10 10:45:10;;;;;;;12.63;5.30;;;;;;;;;;4926748;29;20211;-91
2024/04/10 10:48:18;;;;;;;7.10;4.28;;;;;;;;;;4929834;29;20243;-93
2024/04/10 10:51:23;;;;;;;11.80;4.63;;;;;;;;;;4929717;29;20339;-91
2024/04/10 10:54:28;;;;;;;5.90;4.30;;;;;;;;;;4929381;29;20188;-93
2024/04/10 10:57:32;;;;;;;8.05;4.20;;;;;;;;;;4930243;29;20686;-95
2024/04/10 11:00:38;;;;;;;11.68;4.82;;;;;;;;;;4926935;29;20192;-92
2024/04/10 11:03:47;;;;;;;7.90;4.13;;;;;;;;;;4928562;29;20293;-94
2024/04/10 11:06:52;;;;;;;8.85;4.78;;;;;;;;;;4932708;29;20211;-93
2024/04/10 11:10:05;;;;;;;10.75;3.90;;;;;;;;;;4933077;29;20239;-92
2024/04/10 11:13:13;;;;;;;8.88;4.63;;;;;;;;;;4932300;29;20243;-95
2024/04/10 11:16:26;;;;;;;9.20;4.57;;;;;;;;;;4932299;29;20199;-93
2024/04/10 11:19:36;;;;;;;9.50;4.40;;;;;;;;;;4929986;29;20180;-94
2024/04/10 11:22:40;;;;;;;9.55;4.50;;;;;;;;;;4931428;29;20742;-94
2024/04/10 11:25:46;;;;;;;8.88;4.75;;;;;;;;;;4930290;29;20231;-94
2024/04/10 11:28:53;;;;;;;10.50;4.38;;;;;;;;;;4930011;29;20203;-94
2024/04/10 11:31:58;;;;;;;12.75;3.90;;;;;;;;;;4929946;29;20209;-94
2024/04/10 11:35:10;;;;;;;10.13;3.75;;;;;;;;;;4932233;29;20188;-94
2024/04/10 11:38:16;;;;;;;6.72;3.42;;;;;;;;;;4930593;29;20222;-93
2024/04/10 11:41:20;;;;;;;11.40;3.97;;;;;;;;;;4929906;29;20203;-94
2024/04/10 11:44:25;;;;;;;8.35;3.28;;;;;;;;;;4929855;29;20179;-93
2024/04/10 11:47:32;;;;;;;7.03;3.20;;;;;;;;;;4930018;29;20280;-91
2024/04/10 11:50:40;;;;;;;9.02;4.13;;;;;;;;;;4928965;29;20228;-94
2024/04/10 11:53:44;;;;;;;7.47;2.97;;;;;;;;;;4929086;29;20200;-96
2024/04/10 11:56:49;;;;;;;5.30;3.53;;;;;;;;;;4929225;29;20268;-93
2024/04/10 11:59:53;;;;;;;11.82;3.58;;;;;;;;;;4929564;29;20180;-92
2024/04/10 12:02:59;;;;;;;4.97;3.17;;;;;;;;;;4929887;29;20197;-93
2024/04/10 12:06:06;;;;;;;10.52;3.80;;;;;;;;;;4929534;29;20311;-91
2024/04/10 12:09:11;;;;;;;8.98;3.03;;;;;;;;;;4929030;29;20341;-93
2024/04/10 12:12:16;;;;;;;11.07;2.90;;;;;;;;;;4930587;29;20244;-94
2024/04/10 12:15:22;;;;;;;7.47;3.15;;;;;;;;;;4930521;29;20196;-93
2024/04/10 12:18:27;;;;;;;7.95;2.65;;;;;;;;;;4929893;29;20212;-92
2024/04/10 12:21:34;;;;;;;5.38;2.50;;;;;;;;;;4931153;29;20236;-93
2024/04/10 12:24:38;;;;;;;7.55;2.55;;;;;;;;;;4931132;29;20184;-94
2024/04/10 12:27:52;;;;;;;5.70;2.30;;;;;;;;;;4931822;29;20191;-92
2024/04/10 12:31:00;;;;;;;4.35;1.98;;;;;;;;;;4931617;29;20212;-90
2024/04/10 12:34:05;;;;;;;4.75;1.92;;;;;;;;;;4932753;29;20183;-93
2024/04/10 12:40:35;;;;;;;6.20;1.70;;;;;;;;;;4934052;29;20196;-93
2024/04/10 12:43:44;;;;;;;3.28;1.50;;;;;;;;;;4933700;29;20196;-90
2024/04/10 12:46:53;;;;;;;5.47;2.20;;;;;;;;;;4932674;29;20224;-90
2024/04/10 12:49:58;;;;;;;4.28;2.10;;;;;;;;;;4932930;29;20191;-93
2024/04/10 12:53:04;;;;;;;4.75;2.17;;;;;;;;;;4932352;29;20244;-93
2024/04/10 12:56:10;;;;;;;13.77;2.88;;;;;;;;;;4930986;29;20556;-90
2024/04/10 12:59:15;;;;;;;6.18;2.38;;;;;;;;;;4931226;29;20183;-91
2024/04/10 13:02:20;;;;;;;7.60;2.67;;;;;;;;;;4930294;29;20269;-94
2024/04/10 13:05:24;;;;;;;4.65;2.35;;;;;;;;;;4931321;29;20297;-93
2024/04/10 13:08:39;;;;;;;3.40;2.00;;;;;;;;;;4930610;29;20252;-92
2024/04/10 13:11:45;;;;;;;6.97;2.38;;;;;;;;;;4931908;29;20216;-93
2024/04/10 13:14:52;;;;;;;5.03;2.15;;;;;;;;;;4930812;29;20184;-91
2024/04/10 13:18:06;;;;;;;5.32;2.20;;;;;;;;;;4931989;29;20679;-95
2024/04/10 13:21:12;;;;;;;5.22;2.17;;;;;;;;;;4931003;29;20195;-91
2024/04/10 13:24:19;;;;;;;5.20;1.90;;;;;;;;;;4930109;29;20228;-91
2024/04/10 13:27:24;;;;;;;6.75;1.98;;;;;;;;;;4929362;29;20255;-92
2024/04/10 13:30:29;;;;;;;5.95;2.17;;;;;;;;;;4930348;29;20227;-94
2024/04/10 13:33:34;;;;;;;7.60;1.90;;;;;;;;;;4930479;29;20235;-91
2024/04/10 13:36:39;;;;;;;4.15;2.03;;;;;;;;;;4931712;29;20260;-94
2024/04/10 13:39:50;;;;;;;7.95;2.00;;;;;;;;;;4929034;29;20643;-93
2024/04/10 13:42:55;;;;;;;6.68;2.28;;;;;;;;;;4928733;29;20697;-95
2024/04/10 13:45:59;;;;;;;8.60;2.30;;;;;;;;;;4929908;29;20211;-92
2024/04/10 13:49:04;;;;;;;4.70;1.75;;;;;;;;;;4929002;29;20244;-92
2024/04/10 13:52:09;;;;;;;7.88;2.05;;;;;;;;;;4930454;29;20192;-93
2024/04/10 13:55:16;;;;;;;4.20;1.60;;;;;;;;;;4930487;29;20209;-92
2024/04/10 13:58:21;;;;;;;4.05;1.70;;;;;;;;;;4929165;29;20199;-94
2024/04/10 14:01:26;;;;;;;6.35;1.70;;;;;;;;;;4929961;29;20663;-95
2024/04/10 14:04:31;;;;;;;9.35;2.33;;;;;;;;;;4932987;29;20180;-92
2024/04/10 14:07:41;;;;;;;5.88;2.28;;;;;;;;;;4929787;29;20251;-94
2024/04/10 14:10:47;;;;;;;5.68;2.10;;;;;;;;;;4929653;29;20225;-93
2024/04/10 14:13:53;;;;;;;4.43;2.03;;;;;;;;;;4929798;29;20203;-93
2024/04/10 14:16:57;;;;;;;3.90;1.80;;;;;;;;;;4938367;28;20219;-94
2024/04/10 14:20:10;;;;;;;6.28;1.90;;;;;;;;;;4926462;29;20235;-93
2024/04/10 14:23:16;;;;;;;4.15;1.98;;;;;;;;;;4930699;29;20196;-93
2024/04/10 14:26:23;;;;;;;7.30;2.00;;;;;;;;;;4928312;29;20232;-94
2024/04/10 14:29:33;;;;;;;9.00;2.03;;;;;;;;;;4927731;29;20231;-94
2024/04/10 14:32:37;;;;;;;5.00;1.67;;;;;;;;;;4929949;29;20232;-93
2024/04/10 14:35:47;;;;;;;3.88;1.88;;;;;;;;;;4929250;29;20187;-93
2024/04/10 14:38:52;;;;;;;5.50;1.63;;;;;;;;;;4927667;29;20252;-95
2024/04/10 14:41:57;;;;;;;3.90;1.90;;;;;;;;;;4928764;29;20551;-94
2024/04/10 14:45:12;;;;;;;4.35;1.60;;;;;;;;;;4930065;29;20207;-94
2024/04/10 14:48:17;;;;;;;7.00;1.92;;;;;;;;;;4929403;29;20667;-95
2024/04/10 14:51:26;;;;;;;5.63;1.52;;;;;;;;;;4928909;29;20188;-90
2024/04/10 14:54:30;;;;;;;2.65;1.33;;;;;;;;;;4929883;29;20192;-94
2024/04/10 14:57:37;;;;;;;4.88;1.30;;;;;;;;;;4928752;29;20216;-92
2024/04/10 15:00:42;;;;;;;10.77;1.60;;;;;;;;;;4933512;29;20766;-90
2024/04/10 15:03:48;;;;;;;6.03;1.88;;;;;;;;;;4937621;29;20202;-92
2024/04/10 15:06:53;;;;;;;6.97;2.05;;;;;;;;;;4930563;29;20228;-94
2024/04/10 15:09:59;;;;;;;4.80;1.50;;;;;;;;;;4951645;28;20255;-93
2024/04/10 15:13:06;;;;;;;4.18;1.63;;;;;;;;;;4946770;29;20191;-93
2024/04/10 15:16:10;;;;;;;6.00;1.50;;;;;;;;;;4939999;29;20223;-93
2024/04/10 15:19:16;;;;;;;5.72;1.60;;;;;;;;;;4933176;29;20231;-94
2024/04/10 15:22:20;;;;;;;4.22;1.25;;;;;;;;;;4942440;28;20203;-93
2024/04/10 15:25:34;;;;;;;2.90;1.20;;;;;;;;;;4937947;29;20220;-95
2024/04/10 15:28:41;;;;;;;2.88;1.00;;;;;;;;;;4941624;28;20223;-93
2024/04/10 15:35:07;;;;;;;10.02;2.03;;;;;;;;;;4950740;28;20192;-94
2024/04/10 15:38:12;;;;;;;5.18;1.80;;;;;;;;;;4947396;28;20199;-95
2024/04/10 15:41:18;;;;;;;4.00;1.50;;;;;;;;;;4947648;28;20231;-94
2024/04/10 15:44:26;;;;;;;4.78;1.67;;;;;;;;;;4943133;28;20311;-93
2024/04/10 15:47:31;;;;;;;5.43;1.65;;;;;;;;;;4927288;29;20244;-93
2024/04/10 15:50:35;;;;;;;4.13;1.33;;;;;;;;;;4934803;29;20212;-92
2024/04/10 18:05:17;;;;;;;8.93;2.10;;;;;;;;;;4889093;29;20252;-92
2024/04/10 18:08:21;;;;;;;11.68;5.35;;;;;;;;;;4924732;29;20193;-92
2024/04/10 18:11:27;;;;;;;6.10;2.15;;;;;;;;;;4924168;29;20197;-92
2024/04/10 18:14:32;;;;;;;18.70;8.00;;;;;;;;;;4911512;29;20201;-90
2024/04/10 18:17:37;;;;;;;8.00;3.08;;;;;;;;;;4921994;29;20226;-95
2024/04/10 18:20:42;;;;;;;18.88;9.77;;;;;;;;;;4907914;29;20224;-90
2024/04/10 18:23:49;;;;;;;40.17;16.58;;;;;;;;;;4891125;29;20675;-94
2024/04/10 18:26:53;;;;;;;18.63;9.95;;;;;;;;;;4892479;29;20217;-90
2024/04/10 18:29:59;;;;;;;12.50;4.00;;;;;;;;;;4892619;29;20189;-93
2024/04/10 18:33:03;;;;;;;14.52;3.88;;;;;;;;;;4907014;29;20286;-92
2024/04/10 18:36:20;;;;;;;80.63;32.75;;;;;;;;;;4921928;29;20224;-92
2024/04/10 18:39:25;;;;;;;13.75;8.23;;;;;;;;;;4895094;29;20268;-92
2024/04/10 18:42:32;;;;;;;10.70;4.35;;;;;;;;;;4911069;29;20204;-93
2024/04/10 18:45:37;;;;;;;15.63;5.82;;;;;;;;;;4910302;29;20263;-92
2024/04/10 18:48:55;;;;;;;8.90;4.50;;;;;;;;;;4909650;29;20200;-94
2024/04/10 18:52:00;;;;;;;8.63;3.65;;;;;;;;;;4909414;29;20293;-91
2024/04/10 18:55:06;;;;;;;9.38;4.10;;;;;;;;;;4903176;29;20235;-94
2024/04/10 18:58:10;;;;;;;15.27;6.43;;;;;;;;;;4895079;29;20232;-92
2024/04/10 19:01:16;;;;;;;18.90;7.40;;;;;;;;;;4902920;29;20216;-93
2024/04/10 19:04:23;;;;;;;14.13;6.70;;;;;;;;;;4911385;29;20257;-93
2024/04/10 19:07:29;;;;;;;17.88;6.95;;;;;;;;;;4909003;29;20271;-94
2024/04/10 19:10:35;;;;;;;15.25;5.93;;;;;;;;;;4890415;29;20213;-93
2024/04/10 19:13:40;;;;;;;24.00;10.10;;;;;;;;;;4891591;29;20210;-95
2024/04/10 19:16:46;;;;;;;11.93;4.32;;;;;;;;;;4890713;29;20197;-91
2024/04/10 19:19:52;;;;;;;11.73;3.45;;;;;;;;;;4891720;29;20331;-92
2024/04/10 19:22:58;;;;;;;8.77;4.50;;;;;;;;;;4892228;29;20246;-92
2024/04/10 19:26:04;;;;;;;17.17;5.30;;;;;;;;;;4889731;29;20213;-92
2024/04/10 19:29:08;;;;;;;14.45;4.55;;;;;;;;;;4893661;29;20189;-91
2024/04/10 19:32:13;;;;;;;19.45;7.57;;;;;;;;;;4893832;29;20221;-93
2024/04/10 19:35:17;;;;;;;9.80;4.82;;;;;;;;;;4894644;29;20214;-91
2024/04/10 19:38:24;;;;;;;11.25;3.78;;;;;;;;;;4903720;29;20233;-92
2024/04/10 19:41:29;;;;;;;9.75;3.60;;;;;;;;;;4895057;29;20189;-91
2024/04/10 19:44:35;;;;;;;9.50;3.33;;;;;;;;;;4918930;29;20268;-90
2024/04/10 19:47:39;;;;;;;8.85;3.05;;;;;;;;;;4912459;29;20285;-94
2024/04/10 19:50:45;;;;;;;8.07;2.95;;;;;;;;;;4918893;29;20346;-92
2024/04/10 19:53:51;;;;;;;16.73;5.85;;;;;;;;;;4908928;29;20225;-92
2024/04/10 19:56:58;;;;;;;17.02;3.65;;;;;;;;;;4899418;29;20217;-93
2024/04/10 20:00:05;;;;;;;10.82;4.20;;;;;;;;;;4892098;29;20185;-92
2024/04/10 20:03:18;;;;;;;8.82;3.85;;;;;;;;;;4895220;29;20246;-92
2024/04/10 20:06:23;;;;;;;12.52;4.80;;;;;;;;;;4896209;29;20193;-91
2024/04/10 20:09:30;;;;;;;10.07;4.10;;;;;;;;;;4907584;29;20229;-92
2024/04/10 20:12:34;;;;;;;10.35;3.63;;;;;;;;;;4895688;29;20197;-92
2024/04/10 20:15:44;;;;;;;9.88;3.33;;;;;;;;;;4894549;29;20281;-93
2024/04/10 20:18:49;;;;;;;5.60;2.95;;;;;;;;;;4893982;29;20189;-91
2024/04/10 20:21:54;;;;;;;11.10;3.55;;;;;;;;;;4899874;29;20208;-94
2024/04/10 20:25:03;;;;;;;10.32;3.50;;;;;;;;;;4906436;29;20760;-93
2024/04/10 20:28:09;;;;;;;10.40;3.20;;;;;;;;;;4894213;29;20221;-91
2024/04/10 20:31:16;;;;;;;9.35;4.40;;;;;;;;;;4896524;29;20226;-91
2024/04/10 20:34:20;;;;;;;19.77;9.82;;;;;;;;;;4908682;29;20188;-91
2024/04/10 20:37:29;;;;;;;12.95;5.40;;;;;;;;;;4923230;29;20265;-91
2024/04/10 20:40:34;;;;;;;10.85;4.20;;;;;;;;;;4910536;29;20213;-93
2024/04/10 20:43:41;;;;;;;11.60;4.22;;;;;;;;;;4913291;29;20192;-93
2024/04/10 20:46:49;;;;;;;19.00;6.55;;;;;;;;;;4911033;29;20249;-92
2024/04/10 20:49:54;;;;;;;13.68;4.85;;;;;;;;;;4893767;29;20192;-93
2024/04/10 20:52:59;;;;;;;13.65;5.22;;;;;;;;;;4913582;29;20576;-92
2024/04/10 20:56:05;;;;;;;14.25;6.25;;;;;;;;;;4895811;29;20227;-93
2024/04/10 20:59:11;;;;;;;13.68;6.15;;;;;;;;;;4903262;29;20198;-92
2024/04/10 21:02:19;;;;;;;12.30;5.32;;;;;;;;;;4891081;29;20230;-94
2024/04/10 22:12:46;;;;;;;13.25;4.93;;;;;;;;;;4890742;29;20211;-93